Rhourd El Adra — 7TBS — position and weather

sailwx.info

Track history (hours):
 
Tides and Currents Weather Stations Pressure Air Temp Water Temp Dewpoint Dewpoint Depression Visibility Wind Speed Wind Dir Waves Ship Positions

Rhourd El Adra

Last reported at 2015-Jan-28 02:30 UTC. Time now 2015-Jan-31 17:45 UTC.
Position N 40°02' E 000°55'.

Length 156 m; draft 9.1 m.

Type: Ship (hazmat cat C). MMSI: 605026210.

Date/timePositionNaut miles runAvg speedWind from/ knotsBaromVisibWave heightAir tempDewpointWater temp
2015-Jan-28 02:30N 40°02' E 000°55'1616.6
2015-Jan-28 01:31N 40°18' E 000°60'1616.5
2015-Jan-28 00:33N 40°34' E 001°03'1 0.0
2015-Jan-26 22:33N 40°34' E 001°04'1514.9
2015-Jan-26 21:33N 40°19' E 001°00'1514.8
2015-Jan-26 20:32N 40°04' E 000°57'  
2015-Jan-24 07:33N 38°33' E 003°12'1615.8
2015-Jan-24 06:33N 38°44' E 003°26'1514.7
2015-Jan-24 05:30N 38°55' E 003°40'1514.2
2015-Jan-24 04:25N 39°02' E 003°58'  
2015-Jan-21 22:50N 43°04' E 005°06'115.7
2015-Jan-21 22:46N 43°05' E 005°05'315.8
2015-Jan-21 22:33N 43°08' E 005°03'1414.2
2015-Jan-21 21:33N 43°21' E 004°58'3 2.9
2015-Jan-21 20:33N 43°24' E 004°60'0 0.0
2015-Jan-21 19:33N 43°24' E 004°60'0 0.0
2015-Jan-21 18:31N 43°24' E 004°60'0 0.0
2015-Jan-21 17:31N 43°24' E 004°60'0 0.0
2015-Jan-21 16:31N 43°24' E 004°60'0 0.0
2015-Jan-21 15:31N 43°24' E 004°60'0 0.0
2015-Jan-21 14:31N 43°24' E 004°60'0 0.0
2015-Jan-21 13:31N 43°24' E 004°60'0 0.0
2015-Jan-21 12:31N 43°24' E 004°60'0 0.0
2015-Jan-21 11:31N 43°24' E 004°60'0 0.0
2015-Jan-21 10:31N 43°24' E 004°60'0 0.0
2015-Jan-21 09:31N 43°24' E 004°60'0 0.0
2015-Jan-21 08:31N 43°24' E 004°60'0 0.0
2015-Jan-21 07:31N 43°24' E 004°60'0 0.0
2015-Jan-21 06:31N 43°24' E 004°60'0 0.0
2015-Jan-21 05:31N 43°24' E 004°60'0 0.0
2015-Jan-21 04:31N 43°24' E 004°60'0 0.0
2015-Jan-21 03:31N 43°24' E 004°60'0 0.0
2015-Jan-21 02:31N 43°24' E 004°60'0 0.0
2015-Jan-21 01:31N 43°24' E 004°60'0 0.0
2015-Jan-21 00:31N 43°24' E 004°60'0 0.0
2015-Jan-20 23:31N 43°24' E 004°60'0 0.0
2015-Jan-20 22:31N 43°24' E 004°60'0 0.0
2015-Jan-20 21:31N 43°24' E 004°60'0 0.0
2015-Jan-20 20:31N 43°24' E 004°60'0 0.0
2015-Jan-20 19:31N 43°24' E 004°60'0 0.0
2015-Jan-20 18:31N 43°24' E 004°60'0 0.0
2015-Jan-20 17:31N 43°24' E 004°60'0 0.0
2015-Jan-20 16:31N 43°24' E 004°60'0 0.0
2015-Jan-20 15:31N 43°24' E 004°60'0 0.0
2015-Jan-20 14:31N 43°24' E 004°60'0 0.0
2015-Jan-20 13:31N 43°24' E 004°60'0 0.0
2015-Jan-20 12:31N 43°24' E 004°60'1 0.9
2015-Jan-20 11:33N 43°23' E 004°59'8 7.5
2015-Jan-20 10:33N 43°16' E 005°01'1611.7
2015-Jan-20 09:10N 43°01' E 004°51'1414.2
2015-Jan-20 08:11N 42°50' E 004°40'1113.7
2015-Jan-20 07:21N 42°41' E 004°30'1813.9
2015-Jan-20 06:05N 42°27' E 004°16'12113.5
2015-Jan-19 21:05N 41°10' E 002°11'712.9
2015-Jan-19 20:33N 41°04' E 002°06'1414.2
2015-Jan-19 19:33N 40°51' E 001°59'1414.2
2015-Jan-19 18:33N 40°38' E 001°52'1414.0
2015-Jan-19 17:33N 40°25' E 001°45'1413.7
2015-Jan-19 16:33N 40°11' E 001°41'1414.1
2015-Jan-19 15:34N 39°58' E 001°36'1413.8
2015-Jan-19 14:33N 39°44' E 001°30'1414.0
2015-Jan-19 13:33N 39°32' E 001°23'1514.3
2015-Jan-19 12:32N 39°20' E 001°11'  
Track history (hours):
 
Tides and Currents Weather Stations Pressure Air Temp Water Temp Dewpoint Dewpoint Depression Visibility Wind Speed Wind Dir Waves Ship Positions

Rhourd El Adra

Last reported at 2015-Jan-28 02:30 UTC. Time now 2015-Jan-31 17:45 UTC.
Position N 40°02' E 000°55'.

Length 156 m; draft 9.1 m.

Type: Ship (hazmat cat C). MMSI: 605026210.

Date/timePositionNaut miles runAvg speedWind from/ knotsBaromVisibWave heightAir tempDewpointWater temp
2015-Jan-28 02:30N 40°02' E 000°55'1616.6
2015-Jan-28 01:31N 40°18' E 000°60'1616.5
2015-Jan-28 00:33N 40°34' E 001°03'1 0.0
2015-Jan-26 22:33N 40°34' E 001°04'1514.9
2015-Jan-26 21:33N 40°19' E 001°00'1514.8
2015-Jan-26 20:32N 40°04' E 000°57'  
2015-Jan-24 07:33N 38°33' E 003°12'1615.8
2015-Jan-24 06:33N 38°44' E 003°26'1514.7
2015-Jan-24 05:30N 38°55' E 003°40'1514.2
2015-Jan-24 04:25N 39°02' E 003°58'  
2015-Jan-21 22:50N 43°04' E 005°06'115.7
2015-Jan-21 22:46N 43°05' E 005°05'315.8
2015-Jan-21 22:33N 43°08' E 005°03'1414.2
2015-Jan-21 21:33N 43°21' E 004°58'3 2.9
2015-Jan-21 20:33N 43°24' E 004°60'0 0.0
2015-Jan-21 19:33N 43°24' E 004°60'0 0.0
2015-Jan-21 18:31N 43°24' E 004°60'0 0.0
2015-Jan-21 17:31N 43°24' E 004°60'0 0.0
2015-Jan-21 16:31N 43°24' E 004°60'0 0.0
2015-Jan-21 15:31N 43°24' E 004°60'0 0.0
2015-Jan-21 14:31N 43°24' E 004°60'0 0.0
2015-Jan-21 13:31N 43°24' E 004°60'0 0.0
2015-Jan-21 12:31N 43°24' E 004°60'0 0.0
2015-Jan-21 11:31N 43°24' E 004°60'0 0.0
2015-Jan-21 10:31N 43°24' E 004°60'0 0.0
2015-Jan-21 09:31N 43°24' E 004°60'0 0.0
2015-Jan-21 08:31N 43°24' E 004°60'0 0.0
2015-Jan-21 07:31N 43°24' E 004°60'0 0.0
2015-Jan-21 06:31N 43°24' E 004°60'0 0.0
2015-Jan-21 05:31N 43°24' E 004°60'0 0.0
2015-Jan-21 04:31N 43°24' E 004°60'0 0.0
2015-Jan-21 03:31N 43°24' E 004°60'0 0.0
2015-Jan-21 02:31N 43°24' E 004°60'0 0.0
2015-Jan-21 01:31N 43°24' E 004°60'0 0.0
2015-Jan-21 00:31N 43°24' E 004°60'0 0.0
2015-Jan-20 23:31N 43°24' E 004°60'0 0.0
2015-Jan-20 22:31N 43°24' E 004°60'0 0.0
2015-Jan-20 21:31N 43°24' E 004°60'0 0.0
2015-Jan-20 20:31N 43°24' E 004°60'0 0.0
2015-Jan-20 19:31N 43°24' E 004°60'0 0.0
2015-Jan-20 18:31N 43°24' E 004°60'0 0.0
2015-Jan-20 17:31N 43°24' E 004°60'0 0.0
2015-Jan-20 16:31N 43°24' E 004°60'0 0.0
2015-Jan-20 15:31N 43°24' E 004°60'0 0.0
2015-Jan-20 14:31N 43°24' E 004°60'0 0.0
2015-Jan-20 13:31N 43°24' E 004°60'0 0.0
2015-Jan-20 12:31N 43°24' E 004°60'1 0.9
2015-Jan-20 11:33N 43°23' E 004°59'8 7.5
2015-Jan-20 10:33N 43°16' E 005°01'1611.7
2015-Jan-20 09:10N 43°01' E 004°51'1414.2
2015-Jan-20 08:11N 42°50' E 004°40'1113.7
2015-Jan-20 07:21N 42°41' E 004°30'1813.9
2015-Jan-20 06:05N 42°27' E 004°16'12113.5
2015-Jan-19 21:05N 41°10' E 002°11'712.9
2015-Jan-19 20:33N 41°04' E 002°06'1414.2
2015-Jan-19 19:33N 40°51' E 001°59'1414.2
2015-Jan-19 18:33N 40°38' E 001°52'1414.0
2015-Jan-19 17:33N 40°25' E 001°45'1413.7
2015-Jan-19 16:33N 40°11' E 001°41'1414.1
2015-Jan-19 15:34N 39°58' E 001°36'1413.8
2015-Jan-19 14:33N 39°44' E 001°30'1414.0
2015-Jan-19 13:33N 39°32' E 001°23'1514.3
2015-Jan-19 12:32N 39°20' E 001°11'  

Dump ship's entire track history